createdAt,value
2023-10-10T00:00:39.299Z,1.50
2023-10-10T00:05:44.223Z,1.80
2023-10-10T00:10:50.478Z,1.70
2023-10-10T00:15:57.273Z,1.90
2023-10-10T00:21:08.830Z,1.40
2023-10-10T00:26:16.154Z,1.87
2023-10-10T00:31:23.806Z,1.53
2023-10-10T00:36:34.199Z,1.53
2023-10-10T00:41:45.844Z,1.80
2023-10-10T00:46:52.799Z,1.60
2023-10-10T00:52:02.378Z,1.50
2023-10-10T00:57:09.384Z,1.80
2023-10-10T01:02:14.064Z,1.70
2023-10-10T01:07:20.433Z,1.60
2023-10-10T01:12:25.788Z,1.47
2023-10-10T01:17:32.005Z,1.43
2023-10-10T01:22:41.547Z,1.40
2023-10-10T01:27:45.463Z,1.47
2023-10-10T01:32:51.931Z,1.37
2023-10-10T01:37:57.076Z,1.30
2023-10-10T01:43:00.885Z,1.50
2023-10-10T01:48:09.232Z,0.93
2023-10-10T01:53:16.502Z,1.57
2023-10-10T01:58:21.350Z,1.40
2023-10-10T02:03:25.236Z,1.40
2023-10-10T02:08:32.234Z,1.50
2023-10-10T02:13:40.570Z,1.50
2023-10-10T02:18:46.527Z,1.37
2023-10-10T02:23:54.883Z,1.60
2023-10-10T02:29:12.523Z,1.47
2023-10-10T02:34:16.625Z,1.30
2023-10-10T02:39:30.619Z,1.60
2023-10-10T02:44:47.883Z,1.60
2023-10-10T02:49:56.961Z,1.63
2023-10-10T02:55:07.919Z,1.97
2023-10-10T03:00:29.716Z,1.87
2023-10-10T03:05:50.191Z,1.97
2023-10-10T03:11:01.735Z,2.03
2023-10-10T03:16:29.579Z,1.77
2023-10-10T03:21:45.446Z,2.00
2023-10-10T03:27:02.202Z,2.20
2023-10-10T03:32:33.154Z,2.27
2023-10-10T03:37:43.986Z,2.90
2023-10-10T03:43:15.838Z,2.30
2023-10-10T03:48:36.972Z,2.40
2023-10-10T03:53:58.168Z,1.83
2023-10-10T03:59:21.911Z,1.70
2023-10-10T04:04:39.434Z,1.83
2023-10-10T04:10:00.653Z,1.90
2023-10-10T04:15:24.015Z,2.07
2023-10-10T04:20:46.140Z,2.20
2023-10-10T04:26:07.192Z,2.00
2023-10-10T04:31:29.536Z,1.70
2023-10-10T04:36:50.511Z,1.83
2023-10-10T04:42:08.012Z,1.97
2023-10-10T04:47:30.596Z,1.83
2023-10-10T04:52:51.902Z,1.90
2023-10-10T04:58:12.817Z,2.13
2023-10-10T05:03:35.189Z,2.00
2023-10-10T05:08:56.155Z,1.70
2023-10-10T05:14:17.263Z,1.73
2023-10-10T05:19:39.722Z,1.67
2023-10-10T05:24:45.166Z,1.57
2023-10-10T05:29:51.120Z,1.70
2023-10-10T05:34:58.416Z,1.83
2023-10-10T05:40:02.723Z,1.93
2023-10-10T05:45:09.689Z,1.43
2023-10-10T05:50:14.985Z,1.53
2023-10-10T05:55:18.646Z,1.67
2023-10-10T06:00:26.951Z,2.10
2023-10-10T06:05:32.057Z,1.80
2023-10-10T06:10:36.038Z,1.93
2023-10-10T06:15:40.247Z,1.53
2023-10-10T06:21:06.683Z,1.57
2023-10-10T06:26:10.556Z,1.67
2023-10-10T06:31:18.693Z,1.83
2023-10-10T06:36:34.297Z,1.93
2023-10-10T06:41:39.856Z,1.90
2023-10-10T06:46:43.869Z,1.77
2023-10-10T06:51:50.713Z,2.20
2023-10-10T06:57:05.906Z,2.03
2023-10-10T07:02:20.952Z,2.00
2023-10-10T07:07:27.653Z,2.23
2023-10-10T07:12:31.376Z,2.00
2023-10-10T07:17:40.104Z,2.97
2023-10-10T07:22:46.264Z,2.73
2023-10-10T07:27:49.853Z,2.03
2023-10-10T07:32:53.830Z,2.33
2023-10-10T07:37:59.961Z,2.40
2023-10-10T07:43:04.390Z,2.43
2023-10-10T07:48:37.579Z,2.43
2023-10-10T07:53:50.076Z,2.23
2023-10-10T07:58:57.943Z,2.13
2023-10-10T08:04:05.805Z,2.07
2023-10-10T08:09:19.553Z,2.10
2023-10-10T08:14:31.624Z,2.60
2023-10-10T08:19:35.759Z,3.17
2023-10-10T08:24:44.518Z,3.10
2023-10-10T08:29:48.784Z,3.40
2023-10-10T08:34:54.293Z,2.60
2023-10-10T08:40:16.616Z,2.33
2023-10-10T08:45:24.908Z,2.67
2023-10-10T08:50:29.085Z,2.93
2023-10-10T08:55:38.025Z,2.40
2023-10-10T09:00:44.668Z,2.80
2023-10-10T09:05:50.374Z,2.30
2023-10-10T09:10:59.686Z,2.40
2023-10-10T09:16:08.233Z,2.70
2023-10-10T09:21:19.327Z,2.60
2023-10-10T09:26:31.401Z,2.50
2023-10-10T09:31:35.261Z,2.00
2023-10-10T09:36:52.687Z,2.20
2023-10-10T09:42:07.859Z,2.23
2023-10-10T09:47:38.508Z,2.00
2023-10-10T09:52:56.294Z,2.20
2023-10-10T09:58:09.725Z,1.90
2023-10-10T10:03:33.043Z,1.70
2023-10-10T10:08:45.869Z,1.90
2023-10-10T10:14:14.788Z,1.90
2023-10-10T10:19:28.239Z,1.87
2023-10-10T10:24:33.950Z,1.70
2023-10-10T10:29:43.416Z,1.73
2023-10-10T10:34:50.253Z,1.70
2023-10-10T10:40:15.116Z,2.13
2023-10-10T10:45:28.258Z,1.83
2023-10-10T10:50:43.914Z,2.50
2023-10-10T10:56:00.942Z,1.90
2023-10-10T11:01:09.353Z,1.80
2023-10-10T11:06:15.563Z,2.43
2023-10-10T11:11:29.109Z,2.50
2023-10-10T11:16:39.347Z,2.83
2023-10-10T11:21:49.170Z,1.90
2023-10-10T11:27:03.707Z,2.20
2023-10-10T11:32:09.214Z,1.70
2023-10-10T11:37:14.863Z,2.67
2023-10-10T11:42:32.247Z,1.97
2023-10-10T11:47:43.610Z,1.70
2023-10-10T11:52:54.630Z,2.10
2023-10-10T11:57:59.661Z,1.90
2023-10-10T12:03:06.834Z,1.60
2023-10-10T12:08:10.638Z,1.70
2023-10-10T12:13:21.103Z,1.97
2023-10-10T12:18:27.676Z,2.33
2023-10-10T12:23:32.452Z,2.30
2023-10-10T12:28:36.157Z,2.03
2023-10-10T12:33:41.366Z,1.50
2023-10-10T12:38:45.558Z,1.90
2023-10-10T12:43:50.103Z,1.33
2023-10-10T12:48:55.116Z,2.00
2023-10-10T12:54:05.650Z,1.60
2023-10-10T12:59:25.856Z,1.47
2023-10-10T13:04:33.244Z,2.00
2023-10-10T13:09:43.625Z,1.53
2023-10-10T13:14:51.797Z,2.13
2023-10-10T13:19:59.663Z,1.30
2023-10-10T13:25:09.789Z,1.60
2023-10-10T13:30:14.795Z,4.03
2023-10-10T13:35:22.241Z,7.00
2023-10-10T13:40:25.873Z,3.80
2023-10-10T13:45:29.489Z,2.30
2023-10-10T13:50:43.911Z,2.00
2023-10-10T13:55:47.918Z,1.97
2023-10-10T14:00:56.701Z,1.47
2023-10-10T14:06:09.186Z,1.30
2023-10-10T14:11:14.355Z,1.30
2023-10-10T14:16:18.356Z,1.30
2023-10-10T14:21:26.382Z,1.30
2023-10-10T14:26:32.343Z,1.53
2023-10-10T14:31:43.544Z,1.30
2023-10-10T14:36:52.314Z,1.70
2023-10-10T14:41:58.213Z,1.40
2023-10-10T14:47:04.997Z,1.60
2023-10-10T14:52:10.446Z,1.50
2023-10-10T14:57:25.080Z,1.57
2023-10-10T15:02:28.944Z,1.60
2023-10-10T15:07:34.088Z,1.47
2023-10-10T15:12:38.139Z,1.47
2023-10-10T15:17:43.017Z,1.57
2023-10-10T15:22:47.996Z,3.30
2023-10-10T15:27:54.356Z,2.30
2023-10-10T15:33:03.328Z,2.10
2023-10-10T15:38:12.783Z,1.80
2023-10-10T15:43:31.735Z,1.70
2023-10-10T15:48:43.410Z,1.20
2023-10-10T15:53:49.154Z,1.00
2023-10-10T15:58:53.460Z,1.13
2023-10-10T16:04:01.267Z,1.17
2023-10-10T16:09:11.452Z,1.00
2023-10-10T16:14:15.505Z,1.10
2023-10-10T16:19:22.219Z,0.83
2023-10-10T16:24:28.782Z,0.97
2023-10-10T16:29:35.312Z,0.83
2023-10-10T16:34:44.119Z,1.00
2023-10-10T16:39:50.765Z,0.93
2023-10-10T16:44:55.306Z,0.90
2023-10-10T16:50:00.620Z,0.80
2023-10-10T16:55:11.154Z,0.90
2023-10-10T17:00:16.460Z,0.90
2023-10-10T17:05:24.778Z,1.23
2023-10-10T17:10:30.634Z,1.00
2023-10-10T17:15:40.871Z,1.27
2023-10-10T17:20:44.492Z,1.20
2023-10-10T17:25:50.683Z,1.20
2023-10-10T17:30:56.146Z,1.03
2023-10-10T17:36:01.843Z,1.00
2023-10-10T17:41:07.453Z,1.00
2023-10-10T17:46:15.761Z,1.40
2023-10-10T17:51:19.392Z,1.30
2023-10-10T17:56:24.772Z,1.00
2023-10-10T18:01:30.049Z,1.17
2023-10-10T18:06:36.157Z,1.10
2023-10-10T18:11:41.301Z,0.90
2023-10-10T18:16:46.230Z,1.10
2023-10-10T18:21:52.029Z,1.00
2023-10-10T18:26:58.779Z,1.00
2023-10-10T18:32:05.113Z,1.10
2023-10-10T18:37:09.411Z,1.43
2023-10-10T18:42:16.348Z,1.50
2023-10-10T18:47:19.973Z,1.40
2023-10-10T18:52:23.734Z,1.10
2023-10-10T18:57:28.939Z,1.13
2023-10-10T19:02:32.588Z,1.33
2023-10-10T19:07:36.258Z,1.37
2023-10-10T19:12:41.230Z,1.43
2023-10-10T19:17:46.490Z,1.10
2023-10-10T19:22:50.504Z,1.20
2023-10-10T19:27:56.296Z,1.50
2023-10-10T19:33:00.234Z,1.40
2023-10-10T19:38:05.954Z,1.20
2023-10-10T19:43:11.656Z,1.30
2023-10-10T19:48:17.232Z,1.37
2023-10-10T19:53:22.184Z,1.30
2023-10-10T19:58:27.127Z,1.50
2023-10-10T20:03:30.818Z,1.60
2023-10-10T20:08:35.914Z,1.33
2023-10-10T20:13:41.652Z,1.57
2023-10-10T20:18:45.992Z,1.70
2023-10-10T20:23:50.928Z,1.47
2023-10-10T20:28:55.976Z,1.53
2023-10-10T20:33:59.734Z,1.40
2023-10-10T20:39:06.990Z,1.30
2023-10-10T20:44:12.014Z,1.63
2023-10-10T20:49:16.903Z,1.60
2023-10-10T20:54:20.719Z,1.60
2023-10-10T20:59:26.233Z,1.70
2023-10-10T21:04:30.176Z,2.17
2023-10-10T21:09:37.040Z,1.67
2023-10-10T21:14:42.254Z,1.60
2023-10-10T21:19:46.086Z,1.60
2023-10-10T21:24:49.888Z,1.70
2023-10-10T21:29:55.665Z,1.90
2023-10-10T21:34:59.292Z,1.53
2023-10-10T21:40:02.921Z,1.67
2023-10-10T21:45:09.964Z,1.70
2023-10-10T21:50:14.193Z,1.53
2023-10-10T21:55:19.473Z,1.53
2023-10-10T22:00:46.473Z,1.10
2023-10-10T22:05:50.848Z,1.20
2023-10-10T22:10:55.414Z,1.20
2023-10-10T22:16:01.083Z,1.10
2023-10-10T22:21:04.980Z,1.10
2023-10-10T22:26:10.076Z,1.07
2023-10-10T22:31:15.611Z,1.10
2023-10-10T22:36:20.011Z,0.80
2023-10-10T22:41:23.579Z,1.00
2023-10-10T22:46:31.195Z,0.97
2023-10-10T22:51:37.081Z,0.97
2023-10-10T22:56:42.378Z,0.90
2023-10-10T23:01:47.333Z,0.87
2023-10-10T23:06:50.949Z,0.83
2023-10-10T23:11:55.159Z,0.90
2023-10-10T23:17:00.117Z,0.90
2023-10-10T23:22:05.373Z,0.80
2023-10-10T23:27:09.005Z,1.00
2023-10-10T23:32:13.953Z,0.90
2023-10-10T23:37:17.517Z,1.00
2023-10-10T23:42:21.319Z,1.03
2023-10-10T23:47:26.300Z,0.73
2023-10-10T23:52:33.644Z,1.03
2023-10-10T23:57:37.238Z,0.83
